Telluride, CO (81435)

7:10 AM MDT on July 06, 2015 (GMT -0600)
Upper Benchmark | | Change Station
CLOSE
Current Station
Personal Weather Station
Location: Mountain Village, CO
Elevation: 10118 ft
Nearby Weather Stations

Elev 10118 ft 37.92 °N, 107.86 °W | Updated 5 seconds ago

Partly Cloudy
Partly Cloudy
44.2 °F
Feels Like 44 °F
N
0.0
Wind Variable Wind from ENE
Gusts 0.0 mph

Today
High -- | Low -- °F
--% Chance of Precip.
Yesterday
High -- | Low -- °F
Precip. -- in
5:55 AM 8:36 PM
Waning Gibbous, 75% visible
Pressure 30.42 in
Visibility 10.0 miles
Clouds Clear
Windchill 44 °F
Dew Point 44 °F
Humidity 97%
Rainfall 0.00 in
Snow Depth Not available.
UV 1.0 out of 12
Pollen 3.20 out of 12
Air Quality Not available.
Flu Activity Not available.
METAR KTEX 061235Z AUTO 13004KT 10SM CLR 09/09 A3042 RMK AO2 T00930085

More Conditions Fewer Conditions

Pressure 30.42 in
Visibility 10.0 miles
Clouds Clear
Windchill 44 °F
Dew Point 44 °F
Humidity 97%
Rainfall 0.00 in
Snow Depth Not available.
UV 1.0 out of 12
Pollen 3.20 out of 12
Air Quality Not available.
Flu Activity Not available.
METAR KTEX 061235Z AUTO 13004KT 10SM CLR 09/09 A3042 RMK AO2 T00930085

More Conditions Fewer Conditions

10-Day Weather Forecast

×

Almanac

Astronomy

Jul. 06, 2015 Rise Set
Actual Time
Civil Twilight
Nautical Twilight
Astronomical Twilight
Moon
Length of Visible Light
Length of Day
Tomorrow will be .
, % of the Moon is Illuminated

Today's Extremes

State Highs State Lows

Community

WunderPhotos

Upload Photos

1,835,551 photos uploaded!

WunderBlogs® & News

Nearby

Air Quality

  Air Quality AQ Index Pollutant
Not available.

Snow Depth

Station Depth Elevation

Earthquake Activity

City Distance Mag. Time & Date
Minimum magnitude displayed is 2.5.

Coastal Water Temperatures

Place Temperature

Stations

Nearby Weather Stations

Station Location Temp. Windchill Dew Point Humidity Wind Precip. Elev Updated Type